Time;durP1;ratioP1;P1;durP2;ratioP2;P2;SDS_P1;SDS_P2;PMS_P1;PMS_P2;Temp;Humidity;BMP_temperature;BMP_pressure;BME280_temperature;BME280_humidity;BME280_pressure;Samples;Min_cycle;Max_cycle;Signal;HPM_P1;HPM_P2
2023/08/31 00:01:15;;;;;;;13.45;5.12;;;;;;;30.31;17.60;99641.43;1777495;80;21293;-78
2023/08/31 00:04:22;;;;;;;12.73;5.00;;;;;;;30.37;17.62;99636.47;1779029;79;21363;-79
2023/08/31 00:07:29;;;;;;;21.12;5.20;;;;;;;30.31;17.65;99647.65;1809482;79;21307;-78
2023/08/31 00:10:35;;;;;;;19.45;5.08;;;;;;;29.51;18.17;99646.78;1809205;79;21315;-78
2023/08/31 00:13:40;;;;;;;11.95;4.40;;;;;;;30.32;17.73;99640.27;1745585;82;21354;-78
2023/08/31 00:16:46;;;;;;;23.67;4.95;;;;;;;30.38;17.67;99634.73;1778815;80;21315;-78
2023/08/31 00:19:46;;;;;;;11.07;4.80;;;;;;;30.56;17.48;99639.88;1775870;80;21331;-78
2023/08/31 00:22:53;;;;;;;13.62;5.40;;;;;;;30.68;17.39;99646.33;1775026;80;21588;-78
2023/08/31 00:25:59;;;;;;;10.55;4.53;;;;;;;30.77;17.31;99645.78;1772409;80;21858;-78
2023/08/31 00:29:06;;;;;;;16.45;4.60;;;;;;;30.73;17.17;99635.75;1746541;82;21307;-78
2023/08/31 00:32:11;;;;;;;13.03;5.05;;;;;;;30.48;17.31;99635.84;1746269;82;21324;-79
2023/08/31 00:35:17;;;;;;;12.05;5.30;;;;;;;30.37;17.31;99635.06;1744971;82;21959;-78
2023/08/31 00:38:22;;;;;;;10.70;4.42;;;;;;;30.45;17.29;99635.69;1758762;81;21307;-81
2023/08/31 00:41:27;;;;;;;15.53;4.40;;;;;;;30.60;17.21;99640.06;1777036;80;21851;-81
2023/08/31 00:44:33;;;;;;;12.70;4.37;;;;;;;30.38;17.45;99632.48;1776499;80;21334;-81
2023/08/31 00:47:38;;;;;;;17.60;4.85;;;;;;;30.32;17.52;99632.38;1744901;82;21315;-81
2023/08/31 00:50:44;;;;;;;19.15;4.42;;;;;;;30.07;17.71;99631.06;1745746;82;21280;-81
2023/08/31 00:53:49;;;;;;;14.30;4.30;;;;;;;30.12;17.68;99628.11;1744971;82;21381;-81
2023/08/31 00:57:01;;;;;;;31.70;5.58;;;;;;;30.29;17.65;99629.63;1761913;80;21284;-81
2023/08/31 01:00:07;;;;;;;9.00;4.42;;;;;;;30.22;17.78;99632.91;1746547;82;21299;-81
2023/08/31 01:03:17;;;;;;;10.48;4.80;;;;;;;30.43;17.67;99640.81;1777200;80;21833;-81
2023/08/31 01:06:53;;;;;;;27.45;5.03;;;;;;;30.31;17.84;99637.78;1776017;80;21295;-81
2023/08/31 01:10:23;;;;;;;17.77;4.37;;;;;;;30.32;17.96;99645.91;1777052;80;21327;-78
2023/08/31 01:13:32;;;;;;;19.55;4.62;;;;;;;30.18;18.07;99643.75;1775646;81;21316;-79
2023/08/31 01:16:38;;;;;;;11.53;4.75;;;;;;;30.46;18.24;99644.40;1745953;82;21303;-79
2023/08/31 01:19:59;;;;;;;15.85;4.28;;;;;;;30.50;18.45;99644.01;1745856;82;21336;-78
2023/08/31 01:23:12;;;;;;;14.07;5.12;;;;;;;30.54;18.57;99640.80;1777582;80;21312;-78
2023/08/31 01:26:18;;;;;;;25.70;5.15;;;;;;;29.72;19.18;99636.44;1777735;80;21859;-79
2023/08/31 01:29:23;;;;;;;13.03;3.90;;;;;;;30.00;19.03;99640.78;1775829;80;21327;-78
2023/08/31 01:32:28;;;;;;;14.60;4.72;;;;;;;29.95;19.11;99641.50;1746457;81;21286;-79
2023/08/31 01:35:35;;;;;;;22.05;5.25;;;;;;;29.65;19.41;99636.90;1776014;80;21995;-80
2023/08/31 01:38:41;;;;;;;15.08;4.78;;;;;;;29.41;19.58;99640.56;1745472;82;21334;-80
2023/08/31 01:41:40;;;;;;;15.03;5.92;;;;;;;29.08;19.96;99640.73;1777536;80;22600;-80
2023/08/31 01:44:33;;;;;;;9.48;4.78;;;;;;;29.39;19.71;99641.44;1745176;82;21854;-80
2023/08/31 01:47:39;;;;;;;15.63;4.85;;;;;;;29.40;19.70;99638.87;1777504;80;21344;-80
2023/08/31 01:50:46;;;;;;;23.52;4.72;;;;;;;29.19;19.90;99633.72;1776344;80;21323;-80
2023/08/31 01:53:51;;;;;;;15.53;4.37;;;;;;;29.38;19.67;99631.33;1777527;80;21319;-80
2023/08/31 01:56:57;;;;;;;12.13;3.98;;;;;;;29.53;19.63;99638.00;1777391;80;21824;-80
2023/08/31 02:00:05;;;;;;;12.03;4.33;;;;;;;29.64;19.54;99640.02;1775826;80;21300;-80
2023/08/31 02:03:13;;;;;;;11.80;4.15;;;;;;;29.89;19.37;99636.58;1791085;80;22607;-80
2023/08/31 02:06:19;;;;;;;23.95;4.55;;;;;;;29.60;19.62;99641.25;1745118;82;21374;-79
2023/08/31 02:09:24;;;;;;;16.20;4.90;;;;;;;29.67;19.68;99643.03;1790817;80;21344;-80
2023/08/31 02:12:30;;;;;;;15.25;4.60;;;;;;;29.96;19.44;99647.39;1745079;82;21316;-80
2023/08/31 02:15:36;;;;;;;13.58;4.45;;;;;;;30.00;19.48;99642.20;1750541;80;21634;-80
2023/08/31 02:18:44;;;;;;;11.45;4.30;;;;;;;29.54;19.91;99646.70;1777214;80;21296;-80
2023/08/31 02:21:49;;;;;;;18.00;4.25;;;;;;;29.64;20.08;99647.06;1758162;81;21343;-79
2023/08/31 02:24:54;;;;;;;16.32;5.00;;;;;;;29.56;20.09;99654.30;1775657;80;21303;-79
2023/08/31 02:27:59;;;;;;;9.68;3.92;;;;;;;29.87;19.94;99652.13;1779814;80;21279;-79
2023/08/31 02:31:07;;;;;;;14.23;3.83;;;;;;;30.17;19.62;99651.39;1779929;80;21316;-79
2023/08/31 02:34:13;;;;;;;16.65;4.50;;;;;;;30.27;19.51;99649.70;1779992;80;21964;-79
2023/08/31 02:37:19;;;;;;;19.32;5.20;;;;;;;30.05;19.72;99648.28;1778159;80;21316;-79
2023/08/31 02:40:25;;;;;;;9.18;3.30;;;;;;;30.45;19.50;99642.16;1779798;80;21321;-79
2023/08/31 02:43:31;;;;;;;21.33;4.45;;;;;;;30.38;19.52;99656.47;1779677;80;21325;-79
2023/08/31 02:46:36;;;;;;;16.35;4.40;;;;;;;30.25;19.57;99646.38;1778050;80;21297;-79
2023/08/31 02:49:41;;;;;;;19.05;5.50;;;;;;;30.39;19.61;99658.13;1779639;80;21305;-79
2023/08/31 02:52:48;;;;;;;15.80;4.17;;;;;;;30.66;19.45;99663.57;1779777;80;21879;-79
2023/08/31 02:55:54;;;;;;;14.28;4.55;;;;;;;30.55;19.59;99667.84;1779536;80;21345;-79
2023/08/31 02:59:01;;;;;;;21.68;4.72;;;;;;;30.38;19.63;99669.16;1778477;80;21321;-79
2023/08/31 03:02:07;;;;;;;15.90;4.55;;;;;;;30.63;19.69;99671.30;1779870;80;21939;-79
2023/08/31 03:05:12;;;;;;;13.58;4.20;;;;;;;31.03;19.54;99669.30;1778596;80;21304;-79
2023/08/31 03:08:18;;;;;;;10.28;3.92;;;;;;;30.27;20.22;99674.25;1779361;80;21312;-79
2023/08/31 03:11:24;;;;;;;14.30;4.72;;;;;;;30.78;20.05;99686.99;1779594;80;21839;-79
2023/08/31 03:14:30;;;;;;;8.15;3.83;;;;;;;30.71;20.03;99680.97;1779417;80;21378;-79
2023/08/31 03:17:35;;;;;;;20.27;4.60;;;;;;;30.44;20.24;99676.32;1778038;80;21356;-79
2023/08/31 03:20:41;;;;;;;19.70;4.42;;;;;;;30.07;20.59;99675.59;1779442;80;21340;-79
2023/08/31 03:23:47;;;;;;;13.75;4.17;;;;;;;30.08;20.78;99675.84;1777970;80;21293;-79
2023/08/31 03:26:53;;;;;;;18.05;4.00;;;;;;;30.04;20.68;99682.70;1774207;80;21319;-79
2023/08/31 03:29:58;;;;;;;12.93;3.83;;;;;;;29.84;20.97;99686.61;1771334;81;21327;-79
2023/08/31 03:33:04;;;;;;;26.42;4.25;;;;;;;29.95;20.91;99683.20;1771367;81;21300;-79
2023/08/31 03:36:11;;;;;;;12.80;3.95;;;;;;;29.90;21.13;99681.92;1802748;79;21330;-79
2023/08/31 03:39:17;;;;;;;17.65;4.45;;;;;;;30.05;21.03;99691.98;1747325;81;21362;-79
2023/08/31 03:42:23;;;;;;;14.63;4.53;;;;;;;30.08;21.09;99694.75;1739291;81;21303;-79
2023/08/31 03:45:29;;;;;;;15.05;4.58;;;;;;;30.21;21.08;99696.13;1745464;81;21314;-79
2023/08/31 03:48:34;;;;;;;13.70;4.58;;;;;;;30.10;21.34;99691.85;1777983;80;21305;-79
2023/08/31 03:51:40;;;;;;;16.62;3.80;;;;;;;30.13;21.48;99691.80;1774257;81;21359;-79
2023/08/31 03:54:46;;;;;;;9.15;4.40;;;;;;;30.09;21.63;99693.02;1778227;80;21357;-79
2023/08/31 03:57:52;;;;;;;15.08;4.53;;;;;;;30.11;21.65;99700.56;1770689;81;21949;-79
2023/08/31 04:00:58;;;;;;;18.12;4.42;;;;;;;30.17;21.87;99692.28;1761045;81;21312;-79
2023/08/31 04:04:05;;;;;;;15.68;4.70;;;;;;;29.99;22.12;99689.05;1774595;81;21351;-79
2023/08/31 04:07:13;;;;;;;17.55;5.33;;;;;;;30.68;21.54;99695.14;1743439;82;21378;-79
2023/08/31 04:10:19;;;;;;;17.23;4.67;;;;;;;31.01;21.30;99701.28;1754269;81;21312;-79
2023/08/31 04:13:26;;;;;;;16.15;4.45;;;;;;;30.94;21.41;99698.66;1771176;81;21329;-79
2023/08/31 04:16:31;;;;;;;23.47;4.95;;;;;;;30.88;21.61;99700.81;1750054;81;21304;-79
2023/08/31 04:19:37;;;;;;;18.52;4.22;;;;;;;31.42;21.26;99694.41;1738710;82;21322;-79
2023/08/31 04:22:43;;;;;;;14.85;5.25;;;;;;;30.84;21.78;99694.15;1769507;79;21393;-79
2023/08/31 04:25:51;;;;;;;21.90;4.25;;;;;;;30.96;21.81;99700.56;1757508;80;21296;-79
2023/08/31 04:28:56;;;;;;;14.53;5.00;;;;;;;30.99;21.88;99699.34;1784789;80;21323;-79
2023/08/31 04:32:02;;;;;;;12.60;4.50;;;;;;;31.25;21.71;99695.19;1762497;80;21327;-79
2023/08/31 04:35:07;;;;;;;14.38;6.45;;;;;;;31.34;21.63;99698.66;1749976;82;21311;-79
2023/08/31 04:38:12;;;;;;;14.93;5.15;;;;;;;31.20;21.69;99699.59;1749030;82;21334;-79
2023/08/31 04:41:18;;;;;;;18.57;5.03;;;;;;;31.12;21.74;99693.33;1749489;82;21332;-80
2023/08/31 04:44:24;;;;;;;14.43;5.33;;;;;;;31.47;21.52;99683.53;1749538;82;21309;-80
2023/08/31 04:47:30;;;;;;;16.73;5.05;;;;;;;31.57;21.71;99684.61;1749307;82;21332;-79
2023/08/31 04:50:36;;;;;;;17.60;4.85;;;;;;;31.59;21.70;99686.55;1749350;82;21344;-80
2023/08/31 04:53:42;;;;;;;17.67;5.03;;;;;;;31.74;21.33;99683.21;1748780;82;21344;-79
2023/08/31 04:56:48;;;;;;;18.77;4.37;;;;;;;31.79;21.07;99687.28;1749946;82;21863;-79
2023/08/31 04:59:54;;;;;;;11.25;4.83;;;;;;;31.93;20.64;99693.39;1749640;82;21320;-79
2023/08/31 05:03:00;;;;;;;20.08;4.37;;;;;;;31.90;20.36;99687.84;1747956;82;21386;-79
2023/08/31 05:05:59;;;;;;;12.98;4.37;;;;;;;31.91;20.47;99693.73;1748067;82;21311;-79
2023/08/31 05:09:06;;;;;;;14.28;5.08;;;;;;;32.34;20.37;99696.25;1747719;80;21304;-79
2023/08/31 05:12:13;;;;;;;27.70;4.15;;;;;;;32.50;20.04;99687.48;1754287;80;21295;-79
2023/08/31 05:15:18;;;;;;;10.72;4.10;;;;;;;32.21;20.43;99686.20;1749168;81;21299;-79
2023/08/31 05:18:23;;;;;;;16.97;4.28;;;;;;;32.33;19.81;99687.52;1754071;80;21306;-80
2023/08/31 05:21:28;;;;;;;18.23;5.08;;;;;;;32.46;19.62;99692.16;1751727;80;21662;-80
2023/08/31 05:24:36;;;;;;;15.72;4.65;;;;;;;32.65;19.42;99686.92;1751749;80;21323;-79
2023/08/31 05:27:41;;;;;;;19.77;5.45;;;;;;;32.56;19.55;99688.39;1753969;80;21315;-80
2023/08/31 05:30:58;;;;;;;17.82;5.55;;;;;;;32.38;19.86;99691.61;1705714;83;21320;-79
2023/08/31 05:34:04;;;;;;;26.65;5.60;;;;;;;32.55;19.74;99691.55;1699300;83;21299;-80
2023/08/31 05:37:10;;;;;;;11.43;4.78;;;;;;;32.88;19.30;99698.83;1701376;83;21338;-79
2023/08/31 05:40:18;;;;;;;19.85;5.15;;;;;;;33.23;19.42;99700.94;1687927;85;21336;-79
2023/08/31 05:43:24;;;;;;;21.80;5.08;;;;;;;33.30;19.09;99703.22;1726114;82;21303;-79
2023/08/31 05:46:30;;;;;;;13.40;5.72;;;;;;;33.19;19.28;99704.20;1721271;82;21277;-80
2023/08/31 05:49:36;;;;;;;21.48;6.25;;;;;;;33.18;19.49;99708.22;1705515;83;21343;-79
2023/08/31 05:52:43;;;;;;;16.55;7.05;;;;;;;33.56;19.08;99707.34;1725213;81;21307;-79
2023/08/31 05:55:49;;;;;;;22.22;6.80;;;;;;;33.59;18.96;99706.63;1751385;81;22276;-80
2023/08/31 05:58:55;;;;;;;20.45;7.50;;;;;;;33.65;18.94;99706.69;1727262;80;21285;-80
2023/08/31 06:02:00;;;;;;;18.23;6.95;;;;;;;33.48;18.89;99703.97;1746682;81;21283;-80
2023/08/31 06:05:06;;;;;;;23.45;8.30;;;;;;;33.62;19.22;99703.12;1749256;81;21323;-79
2023/08/31 06:08:13;;;;;;;22.35;7.33;;;;;;;33.82;19.00;99710.78;1756137;81;21302;-79
2023/08/31 06:11:18;;;;;;;23.85;8.43;;;;;;;34.09;18.80;99705.75;1700540;83;21292;-79
2023/08/31 06:14:23;;;;;;;33.15;8.13;;;;;;;34.14;19.09;99705.53;1707637;83;21318;-80
2023/08/31 06:17:34;;;;;;;30.60;8.65;;;;;;;34.21;18.94;99720.00;1710527;83;22794;-79
2023/08/31 06:20:39;;;;;;;23.87;8.75;;;;;;;34.42;18.72;99727.04;1699613;83;21295;-79
2023/08/31 06:23:45;;;;;;;13.88;7.35;;;;;;;34.04;19.09;99722.99;1722624;81;22445;-79
2023/08/31 06:26:50;;;;;;;29.05;9.00;;;;;;;34.29;18.91;99729.59;1707383;83;21854;-79
2023/08/31 06:29:56;;;;;;;34.67;11.08;;;;;;;34.49;18.83;99733.58;1729250;79;21294;-79
2023/08/31 06:33:03;;;;;;;33.78;10.65;;;;;;;34.80;18.77;99733.90;1753222;80;21299;-79
2023/08/31 06:36:09;;;;;;;19.35;9.15;;;;;;;34.65;19.18;99742.28;1755960;79;21370;-78
2023/08/31 06:39:15;;;;;;;24.43;8.65;;;;;;;35.02;19.09;99741.19;1752560;80;21362;-80
2023/08/31 06:42:21;;;;;;;24.67;8.88;;;;;;;34.95;19.12;99739.48;1754820;80;21280;-80
2023/08/31 06:45:25;;;;;;;26.07;9.70;;;;;;;35.09;18.96;99735.73;1758284;80;21291;-80
2023/08/31 06:48:31;;;;;;;18.73;9.63;;;;;;;35.20;18.81;99735.28;1759043;80;21323;-81
2023/08/31 06:51:37;;;;;;;29.50;8.95;;;;;;;35.47;18.95;99736.58;1736525;81;21235;-80
2023/08/31 06:54:42;;;;;;;23.35;9.45;;;;;;;35.68;19.27;99736.45;1728166;82;21375;-81
2023/08/31 06:57:49;;;;;;;28.90;10.10;;;;;;;35.28;18.94;99737.98;1725298;81;21358;-80
2023/08/31 07:00:55;;;;;;;23.60;10.40;;;;;;;35.58;19.06;99735.75;1713223;82;21299;-80
2023/08/31 07:04:00;;;;;;;38.48;11.65;;;;;;;35.75;18.91;99741.75;1728937;82;21307;-81
2023/08/31 07:07:08;;;;;;;27.32;11.68;;;;;;;36.06;18.57;99736.02;1730729;82;21274;-78
2023/08/31 07:10:13;;;;;;;26.40;11.50;;;;;;;36.28;18.80;99742.57;1748681;81;21292;-77
2023/08/31 07:13:12;;;;;;;28.65;11.05;;;;;;;36.27;18.69;99743.73;1728270;82;21346;-78
2023/08/31 07:16:18;;;;;;;36.15;11.97;;;;;;;36.36;19.00;99739.31;1751272;80;21311;-77
2023/08/31 07:19:24;;;;;;;29.32;10.10;;;;;;;36.64;19.08;99742.77;1727720;82;21574;-78
2023/08/31 07:22:31;;;;;;;42.95;11.65;;;;;;;36.76;19.18;99744.95;1746673;80;21345;-78
2023/08/31 07:25:36;;;;;;;39.88;11.18;;;;;;;37.01;18.93;99759.88;1727507;82;21338;-79
2023/08/31 07:28:42;;;;;;;39.65;11.60;;;;;;;37.22;18.96;99764.47;1760278;80;21307;-78
2023/08/31 07:31:48;;;;;;;41.00;12.58;;;;;;;37.72;19.07;99762.27;1759062;81;21340;-79
2023/08/31 07:34:54;;;;;;;39.53;11.28;;;;;;;37.99;18.75;99762.49;1752660;81;21973;-80
2023/08/31 07:38:03;;;;;;;27.35;10.75;;;;;;;38.19;18.63;99758.44;1753360;79;21303;-80
2023/08/31 07:41:08;;;;;;;39.03;11.55;;;;;;;38.51;18.28;99752.59;1757756;81;21319;-79
2023/08/31 07:44:14;;;;;;;36.90;12.20;;;;;;;38.39;18.13;99747.86;1762864;79;21324;-79
2023/08/31 07:47:20;;;;;;;34.10;11.55;;;;;;;38.33;18.74;99750.80;1751574;80;21342;-80
2023/08/31 07:50:25;;;;;;;38.80;11.43;;;;;;;38.57;18.36;99735.36;1752207;80;21311;-79
2023/08/31 07:53:31;;;;;;;25.15;10.98;;;;;;;38.57;18.36;99736.78;1751723;80;21292;-80
2023/08/31 07:56:37;;;;;;;26.33;11.90;;;;;;;38.30;18.14;99736.69;1748567;80;21350;-79
2023/08/31 07:59:42;;;;;;;34.03;11.60;;;;;;;38.30;18.48;99731.55;1754745;80;21328;-79
2023/08/31 08:02:49;;;;;;;32.88;13.43;;;;;;;38.19;18.28;99728.45;1754899;80;22187;-79
2023/08/31 08:05:55;;;;;;;34.45;12.75;;;;;;;38.06;18.59;99730.62;1753318;80;21339;-79
2023/08/31 08:09:01;;;;;;;36.60;14.47;;;;;;;38.16;18.51;99730.66;1769791;79;21320;-79
2023/08/31 08:12:07;;;;;;;45.95;14.00;;;;;;;38.27;18.63;99733.12;1741168;81;21362;-79
2023/08/31 08:16:05;;;;;;;60.55;15.65;;;;;;;38.45;17.99;99731.27;1747021;81;21526;-79
2023/08/31 08:19:18;;;;;;;39.73;14.65;;;;;;;38.48;18.13;99724.17;1842758;76;22182;-78
2023/08/31 08:22:24;;;;;;;48.85;14.53;;;;;;;38.55;18.46;99726.35;1820268;77;21298;-79
2023/08/31 08:25:29;;;;;;;31.77;14.50;;;;;;;38.58;17.94;99722.14;1814446;77;21279;-79
2023/08/31 08:28:35;;;;;;;39.50;14.93;;;;;;;38.20;18.34;99714.40;1817987;77;21894;-79
2023/08/31 08:31:41;;;;;;;38.60;15.08;;;;;;;38.46;18.13;99723.73;1756875;80;21330;-80
2023/08/31 08:34:47;;;;;;;41.83;15.30;;;;;;;38.51;18.35;99722.60;1757657;80;21326;-80
2023/08/31 08:37:52;;;;;;;35.73;16.45;;;;;;;38.75;18.04;99716.55;1751187;80;21320;-79
2023/08/31 08:40:57;;;;;;;48.08;18.52;;;;;;;38.72;17.66;99713.59;1746403;81;21298;-79
2023/08/31 08:44:04;;;;;;;43.05;18.65;;;;;;;38.67;17.58;99724.73;1744189;81;21314;-79
2023/08/31 08:47:09;;;;;;;40.60;12.28;;;;;;;38.67;17.40;99719.02;1745055;81;21314;-79
2023/08/31 08:50:15;;;;;;;34.23;10.98;;;;;;;38.81;17.29;99723.59;1748305;80;21291;-79
2023/08/31 08:53:20;;;;;;;29.00;9.98;;;;;;;38.73;17.50;99726.70;1740454;80;21287;-78
2023/08/31 08:56:29;;;;;;;23.27;9.60;;;;;;;38.92;16.70;99722.98;1747483;80;22283;-79
2023/08/31 08:59:42;;;;;;;30.72;11.08;;;;;;;39.24;16.68;99724.38;1737548;81;21307;-79
2023/08/31 09:02:48;;;;;;;;;;;;;;;39.19;16.48;99727.51;1743515;81;21309;-79
2023/08/31 09:05:56;;;;;;;27.27;12.43;;;;;;;39.34;16.41;99722.30;1740795;81;20280;-79
2023/08/31 09:09:04;;;;;;;25.08;9.85;;;;;;;39.22;16.53;99721.06;1709894;81;21259;-79
2023/08/31 09:12:15;;;;;;;24.05;10.13;;;;;;;39.51;16.12;99708.02;1736806;81;21319;-79
2023/08/31 09:15:20;;;;;;;24.63;9.35;;;;;;;39.73;15.80;99716.35;1728203;82;21319;-80
2023/08/31 09:18:37;;;;;;;20.77;7.90;;;;;;;39.85;16.25;99723.86;1730245;82;21343;-79
2023/08/31 09:21:46;;;;;;;23.83;7.83;;;;;;;39.85;16.25;99723.86;1707640;82;21343;-80
2023/08/31 09:24:54;;;;;;;12.28;6.97;;;;;;;40.03;15.21;99722.06;1718470;82;21323;-80
2023/08/31 09:28:00;;;;;;;18.07;8.35;;;;;;;39.98;15.03;99727.31;1717616;81;21390;-79
2023/08/31 09:31:14;;;;;;;19.40;7.53;;;;;;;39.96;14.91;99721.98;1728839;81;21299;-81
2023/08/31 09:34:22;;;;;;;16.90;7.37;;;;;;;40.21;14.83;99725.80;1776912;79;21660;-79
2023/08/31 09:37:28;;;;;;;27.48;7.78;;;;;;;40.42;14.30;99723.78;1725824;81;21282;-80
2023/08/31 09:40:33;;;;;;;25.52;7.15;;;;;;;40.44;14.43;99717.06;1781176;79;21331;-81
2023/08/31 09:43:40;;;;;;;20.00;7.53;;;;;;;40.59;14.70;99715.41;1752087;81;21329;-81
2023/08/31 09:46:49;;;;;;;21.15;7.72;;;;;;;40.76;14.72;99706.79;1778327;79;21372;-80
2023/08/31 09:49:55;;;;;;;21.68;7.62;;;;;;;40.78;14.33;99708.64;1774905;79;21188;-80
2023/08/31 09:53:03;;;;;;;14.28;7.67;;;;;;;40.76;14.67;99701.67;1782377;79;21769;-79
2023/08/31 09:56:10;;;;;;;20.32;7.30;;;;;;;40.71;14.65;99708.59;1774055;79;21539;-79
2023/08/31 09:59:15;;;;;;;19.45;7.08;;;;;;;40.45;14.94;99702.95;1777313;78;21962;-79
2023/08/31 10:02:24;;;;;;;21.57;7.37;;;;;;;40.49;14.95;99710.98;1774765;79;21573;-79
2023/08/31 10:05:32;;;;;;;17.20;7.78;;;;;;;40.60;14.95;99707.02;1737964;81;21956;-80
2023/08/31 10:08:38;;;;;;;20.88;8.35;;;;;;;40.78;14.65;99700.66;1776912;79;21336;-79
2023/08/31 10:11:43;;;;;;;20.48;8.15;;;;;;;40.79;14.51;99698.81;1778877;79;22332;-80
2023/08/31 10:14:49;;;;;;;17.90;7.30;;;;;;;41.03;14.54;99698.88;1784869;78;21878;-80
2023/08/31 10:17:54;;;;;;;14.35;7.25;;;;;;;41.18;14.46;99705.55;1768728;79;21307;-80
2023/08/31 10:20:59;;;;;;;22.25;7.97;;;;;;;41.16;14.72;99695.67;1782367;79;21320;-80
2023/08/31 10:24:05;;;;;;;18.07;7.85;;;;;;;41.30;14.40;99690.86;1786442;79;22556;-79
2023/08/31 10:27:26;;;;;;;19.73;7.20;;;;;;;41.08;14.26;99697.07;1713383;81;21307;-79
2023/08/31 10:30:37;;;;;;;16.30;7.62;;;;;;;41.34;14.13;99696.64;1791023;79;21326;-80
2023/08/31 10:33:53;;;;;;;20.92;8.70;;;;;;;41.73;14.30;99701.20;1779811;79;21292;-79
2023/08/31 10:36:59;;;;;;;30.45;10.25;;;;;;;41.60;14.19;99684.14;1787359;79;21302;-79
2023/08/31 10:40:18;;;;;;;27.58;9.20;;;;;;;41.38;14.55;99686.66;1782425;79;21993;-80
2023/08/31 10:43:23;;;;;;;20.52;9.30;;;;;;;41.04;14.53;99687.61;1775702;79;21332;-79
2023/08/31 10:46:45;;;;;;;17.85;10.03;;;;;;;41.42;14.52;99680.33;1744405;81;21334;-79
2023/08/31 10:49:59;;;;;;;25.57;9.83;;;;;;;41.25;14.45;99670.34;1765413;79;21641;-79
2023/08/31 10:53:04;;;;;;;23.42;10.08;;;;;;;41.45;14.42;99673.16;1768530;81;22666;-78
2023/08/31 10:56:09;;;;;;;19.92;9.80;;;;;;;41.60;14.58;99676.96;1761342;79;22239;-80
2023/08/31 10:59:14;;;;;;;18.62;10.85;;;;;;;41.44;14.66;99664.34;1791008;79;21334;-80
2023/08/31 11:02:41;;;;;;;20.57;10.72;;;;;;;41.94;14.59;99666.69;1780002;79;21334;-78
2023/08/31 11:05:59;;;;;;;22.93;13.03;;;;;;;42.04;15.01;99656.67;1770561;79;21902;-79
2023/08/31 11:09:05;;;;;;;30.55;12.00;;;;;;;42.00;15.23;99657.27;1775548;79;21311;-78
2023/08/31 11:12:13;;;;;;;34.48;13.48;;;;;;;41.84;15.19;99650.45;1778085;79;21895;-79
2023/08/31 11:15:25;;;;;;;28.45;12.25;;;;;;;42.01;15.48;99652.34;1782827;78;21291;-79
2023/08/31 11:18:30;;;;;;;29.65;12.88;;;;;;;42.02;15.44;99641.06;1776201;78;21295;-78
2023/08/31 11:21:36;;;;;;;38.85;13.45;;;;;;;42.05;15.27;99641.08;1788737;78;21303;-78
2023/08/31 11:24:41;;;;;;;33.50;14.10;;;;;;;42.12;15.21;99638.86;1763556;79;22290;-78
2023/08/31 11:27:46;;;;;;;26.45;12.53;;;;;;;42.05;15.21;99634.52;1770194;79;21308;-79
2023/08/31 11:30:53;;;;;;;37.40;13.83;;;;;;;41.92;15.45;99626.87;1774987;79;21312;-79
2023/08/31 11:33:58;;;;;;;41.50;15.13;;;;;;;41.72;15.94;99624.92;1759801;79;21922;-79
2023/08/31 11:37:04;;;;;;;29.95;12.60;;;;;;;41.86;16.23;99625.63;1784202;78;21298;-79
2023/08/31 11:40:09;;;;;;;26.27;13.65;;;;;;;41.96;15.84;99615.41;1774860;79;21318;-79
2023/08/31 11:43:16;;;;;;;27.40;12.63;;;;;;;41.76;16.28;99620.02;1768360;79;21339;-79
2023/08/31 11:46:21;;;;;;;23.75;13.25;;;;;;;42.31;15.92;99627.03;1775609;79;21863;-79
2023/08/31 11:49:26;;;;;;;30.82;13.43;;;;;;;42.16;16.09;99622.45;1778523;79;21284;-79
2023/08/31 11:52:32;;;;;;;30.15;13.48;;;;;;;42.14;15.60;99622.02;1775120;79;22379;-79
2023/08/31 11:55:38;;;;;;;28.17;14.00;;;;;;;42.29;15.67;99615.10;1785023;79;21864;-79
2023/08/31 11:58:50;;;;;;;29.42;15.23;;;;;;;42.40;15.71;99615.14;1762758;79;22210;-78
2023/08/31 12:01:58;;;;;;;25.45;14.47;;;;;;;42.33;15.66;99618.81;1766356;81;21279;-78
2023/08/31 12:05:05;;;;;;;26.75;14.10;;;;;;;42.46;15.61;99619.86;1778460;79;21340;-78
2023/08/31 12:08:13;;;;;;;37.88;14.50;;;;;;;42.18;15.74;99617.73;1747245;80;21280;-78
2023/08/31 12:11:18;;;;;;;26.27;13.98;;;;;;;42.16;15.93;99616.71;1771164;79;21307;-79
2023/08/31 12:14:28;;;;;;;30.05;14.38;;;;;;;42.48;15.76;99608.15;1791658;80;21311;-78
2023/08/31 12:17:34;;;;;;;32.83;12.73;;;;;;;42.03;15.93;99606.83;1767114;80;21372;-79
2023/08/31 12:20:41;;;;;;;26.12;10.93;;;;;;;42.51;15.66;99610.21;1766765;80;21997;-79
2023/08/31 12:23:47;;;;;;;40.10;10.93;;;;;;;42.72;15.99;99606.54;1782031;79;21280;-79
2023/08/31 12:26:56;;;;;;;21.50;10.82;;;;;;;42.91;16.07;99611.67;1766522;81;21353;-79
2023/08/31 12:30:04;;;;;;;24.07;9.68;;;;;;;42.96;16.14;99606.34;1794327;79;21319;-79
2023/08/31 12:33:10;;;;;;;20.75;9.45;;;;;;;42.50;16.37;99606.32;1693101;83;21304;-79
2023/08/31 12:36:15;;;;;;;19.07;8.15;;;;;;;42.41;16.63;99603.03;1769027;79;21363;-78
2023/08/31 12:39:21;;;;;;;14.50;6.15;;;;;;;42.21;17.20;99593.95;1767314;81;21635;-79
2023/08/31 12:42:26;;;;;;;18.95;7.20;;;;;;;42.41;17.25;99591.53;1766199;80;21334;-79
2023/08/31 12:45:31;;;;;;;16.17;6.80;;;;;;;42.63;16.94;99596.06;1765466;81;21933;-79
2023/08/31 12:48:36;;;;;;;15.13;5.65;;;;;;;42.44;17.16;99594.38;1768881;79;21308;-79
2023/08/31 12:51:42;;;;;;;16.87;6.90;;;;;;;42.73;16.96;99590.95;1768641;79;21319;-79
2023/08/31 12:54:49;;;;;;;16.77;6.83;;;;;;;42.71;16.96;99594.84;1764970;79;22467;-78
2023/08/31 12:57:54;;;;;;;14.43;5.90;;;;;;;42.79;16.83;99589.30;1767911;79;21368;-79
2023/08/31 13:01:03;;;;;;;12.63;5.20;;;;;;;42.51;16.81;99590.71;1766118;81;22454;-79
2023/08/31 13:04:09;;;;;;;15.93;4.92;;;;;;;42.49;16.34;99591.72;1793064;79;21335;-79
2023/08/31 13:07:14;;;;;;;14.95;5.12;;;;;;;42.63;16.41;99590.31;1797265;79;22186;-79
2023/08/31 13:10:21;;;;;;;12.63;4.90;;;;;;;42.48;16.87;99597.27;1784767;79;21570;-79
2023/08/31 13:13:26;;;;;;;15.68;4.80;;;;;;;42.50;17.04;99594.83;1782764;79;21280;-79
2023/08/31 13:16:33;;;;;;;12.15;4.70;;;;;;;42.04;16.96;99592.05;1804484;79;21304;-79
2023/08/31 13:19:39;;;;;;;13.53;4.67;;;;;;;42.37;16.63;99593.77;1767585;81;21291;-79
2023/08/31 13:22:46;;;;;;;7.85;4.40;;;;;;;42.38;17.13;99595.41;1766775;80;21350;-79
2023/08/31 13:25:52;;;;;;;12.82;4.72;;;;;;;42.53;17.30;99589.67;1776302;80;21870;-79
2023/08/31 13:28:59;;;;;;;15.45;4.42;;;;;;;42.16;17.23;99589.42;1776390;80;21619;-79
2023/08/31 13:32:05;;;;;;;14.87;4.33;;;;;;;42.34;16.86;99584.53;1775045;80;22270;-79
2023/08/31 13:35:12;;;;;;;21.30;4.40;;;;;;;42.27;16.95;99593.77;1805955;79;21533;-79
2023/08/31 13:38:18;;;;;;;14.13;4.85;;;;;;;42.48;17.25;99595.83;1804494;79;21358;-78
2023/08/31 13:41:24;;;;;;;8.93;4.62;;;;;;;42.79;17.52;99596.48;1739122;82;21299;-78
2023/08/31 13:44:31;;;;;;;11.30;4.87;;;;;;;42.93;17.58;99599.15;1722858;83;21313;-78
2023/08/31 13:47:37;;;;;;;11.38;4.53;;;;;;;42.89;17.56;99597.71;1723568;83;21306;-78
2023/08/31 13:50:43;;;;;;;7.78;4.22;;;;;;;42.98;17.46;99600.17;1725629;83;21296;-78
2023/08/31 13:53:48;;;;;;;20.48;6.05;;;;;;;43.11;17.48;99605.11;1719093;83;21335;-78
2023/08/31 13:56:54;;;;;;;17.27;5.40;;;;;;;43.06;17.93;99598.34;1720373;83;21315;-78
2023/08/31 14:00:01;;;;;;;26.60;4.85;;;;;;;43.06;18.05;99601.84;1721073;83;21874;-78
2023/08/31 14:03:07;;;;;;;20.32;5.00;;;;;;;43.09;18.13;99600.99;1720788;83;21358;-78
2023/08/31 14:06:13;;;;;;;10.20;4.80;;;;;;;43.41;17.83;99598.66;1721422;83;21331;-78
2023/08/31 14:09:18;;;;;;;11.88;5.33;;;;;;;43.74;17.62;99595.88;1719918;83;21362;-79
2023/08/31 14:12:25;;;;;;;15.28;4.83;;;;;;;42.79;18.43;99599.36;1720136;83;21386;-79
2023/08/31 14:15:30;;;;;;;10.95;4.95;;;;;;;42.83;18.07;99597.31;1720773;83;21327;-79
2023/08/31 14:18:34;;;;;;;13.95;4.45;;;;;;;43.35;18.03;99600.53;1720949;83;21335;-78
2023/08/31 14:21:40;;;;;;;13.48;5.12;;;;;;;43.45;17.95;99599.50;1720939;83;21318;-79
2023/08/31 14:24:47;;;;;;;17.87;4.40;;;;;;;43.32;18.06;99597.03;1709330;83;21332;-79
2023/08/31 14:27:54;;;;;;;20.95;6.03;;;;;;;43.24;18.15;99604.06;1703341;84;21372;-79